Exchange, West Virginia
Current Conditions -  °F | °C
As of 12:55 PM on Thursday 23 Oct 2014 (Local Time) from KW22 Reporting Station
Overcast Overcast  
Wind Chill:   Ceiling: 1500
Heat Index:   Visibility: 10mi
Dew Point:   Wind: 8mph
Humidity: 87%   Direction: 280°W
Pressure: 30.14"   Gusts: NA
Location:  38.77°N, 80.72°W
Report Text: KW22 231655Z AUTO 28007KT 10SM OVC015 09/07 A3014 RMK AO2
Loading
Personal Weather Stations






























Interactive Weather Map
Tropical Storm Tracking
New forecast layout! Learn more

10-Day Weather Forecast

Advertisements
Track Severe Weather on mobile